createdAt,value
2018-05-06T00:01:29.036Z,13.90
2018-05-06T00:03:55.265Z,13.80
2018-05-06T00:06:21.419Z,13.80
2018-05-06T00:08:47.501Z,13.70
2018-05-06T00:11:13.801Z,13.70
2018-05-06T00:13:39.918Z,13.70
2018-05-06T00:16:06.024Z,13.60
2018-05-06T00:18:32.885Z,13.60
2018-05-06T00:20:59.022Z,13.50
2018-05-06T00:23:25.124Z,13.60
2018-05-06T00:25:51.224Z,13.50
2018-05-06T00:28:18.126Z,13.50
2018-05-06T00:30:44.286Z,13.40
2018-05-06T00:33:10.463Z,13.40
2018-05-06T00:35:36.632Z,13.40
2018-05-06T00:38:02.766Z,13.40
2018-05-06T00:40:28.923Z,13.30
2018-05-06T00:42:55.329Z,13.30
2018-05-06T00:45:21.453Z,13.30
2018-05-06T00:47:47.609Z,13.20
2018-05-06T00:50:13.698Z,13.20
2018-05-06T00:52:39.832Z,13.10
2018-05-06T00:55:05.941Z,13.10
2018-05-06T00:57:32.069Z,13.10
2018-05-06T00:59:59.617Z,13.00
2018-05-06T01:02:26.488Z,12.90
2018-05-06T01:04:53.337Z,12.90
2018-05-06T01:07:20.195Z,12.80
2018-05-06T01:09:46.292Z,12.80
2018-05-06T01:12:12.439Z,12.80
2018-05-06T01:14:40.192Z,12.60
2018-05-06T01:17:06.324Z,12.60
2018-05-06T01:19:32.425Z,12.70
2018-05-06T01:21:58.523Z,12.60
2018-05-06T01:24:24.652Z,12.60
2018-05-06T01:26:50.744Z,12.50
2018-05-06T01:29:16.892Z,12.50
2018-05-06T01:31:43.017Z,12.40
2018-05-06T01:34:09.158Z,12.40
2018-05-06T01:36:36.041Z,12.40
2018-05-06T01:39:02.657Z,12.30
2018-05-06T01:41:28.785Z,12.30
2018-05-06T01:43:54.912Z,12.30
2018-05-06T01:46:21.052Z,12.30
2018-05-06T01:48:47.161Z,12.20
2018-05-06T01:51:13.272Z,12.20
2018-05-06T01:53:39.403Z,12.10
2018-05-06T01:56:05.545Z,12.10
2018-05-06T01:58:38.705Z,12.00
2018-05-06T02:01:04.842Z,12.00
2018-05-06T02:03:30.987Z,11.90
2018-05-06T02:05:57.095Z,11.80
2018-05-06T02:08:23.185Z,11.80
2018-05-06T02:10:49.619Z,11.70
2018-05-06T02:13:15.728Z,11.60
2018-05-06T02:15:41.827Z,11.60
2018-05-06T02:18:08.681Z,11.50
2018-05-06T02:20:34.841Z,11.50
2018-05-06T02:23:00.913Z,11.50
2018-05-06T02:25:27.133Z,11.40
2018-05-06T02:27:53.245Z,11.40
2018-05-06T02:30:19.402Z,11.40
2018-05-06T02:32:45.518Z,11.40
2018-05-06T02:35:11.596Z,11.30
2018-05-06T02:37:38.477Z,11.20
2018-05-06T02:40:04.659Z,11.20
2018-05-06T02:42:31.192Z,11.20
2018-05-06T02:44:57.284Z,11.20
2018-05-06T02:47:23.433Z,11.10
2018-05-06T02:49:49.653Z,11.10
2018-05-06T02:52:15.782Z,11.10
2018-05-06T02:54:41.920Z,11.00
2018-05-06T02:57:08.005Z,11.00
2018-05-06T02:59:35.052Z,10.90
2018-05-06T03:02:01.910Z,10.80
2018-05-06T03:04:28.767Z,10.90
2018-05-06T03:06:54.968Z,10.80
2018-05-06T03:09:21.125Z,10.90
2018-05-06T03:11:47.276Z,10.80
2018-05-06T03:14:13.581Z,10.80
2018-05-06T03:16:40.516Z,10.80
2018-05-06T03:19:06.655Z,10.80
2018-05-06T03:21:32.768Z,10.80
2018-05-06T03:23:59.114Z,10.80
2018-05-06T03:26:25.298Z,10.80
2018-05-06T03:28:51.442Z,10.80
2018-05-06T03:31:17.553Z,10.80
2018-05-06T03:33:45.075Z,10.70
2018-05-06T03:36:11.973Z,10.70
2018-05-06T03:38:38.079Z,10.70
2018-05-06T03:41:04.923Z,10.70
2018-05-06T03:43:31.334Z,10.60
2018-05-06T03:45:57.465Z,10.70
2018-05-06T03:48:23.584Z,10.70
2018-05-06T03:50:49.917Z,10.70
2018-05-06T03:53:27.776Z,10.60
2018-05-06T03:59:08.265Z,10.60
2018-05-06T04:01:35.070Z,10.60
2018-05-06T04:04:01.870Z,10.50
2018-05-06T04:06:28.016Z,10.60
2018-05-06T04:08:54.105Z,10.50
2018-05-06T04:11:20.942Z,10.50
2018-05-06T04:13:47.050Z,10.50
2018-05-06T04:16:13.672Z,10.60
2018-05-06T04:18:40.046Z,10.50
2018-05-06T04:21:06.879Z,10.60
2018-05-06T04:23:32.969Z,10.50
2018-05-06T04:25:59.120Z,10.60
2018-05-06T04:28:25.247Z,10.60
2018-05-06T04:30:51.343Z,10.70
2018-05-06T04:33:18.184Z,10.70
2018-05-06T04:35:45.072Z,10.70
2018-05-06T04:38:11.211Z,10.70
2018-05-06T04:40:37.341Z,10.80
2018-05-06T04:43:03.420Z,10.80
2018-05-06T04:45:30.360Z,10.90
2018-05-06T04:47:56.599Z,10.80
2018-05-06T04:50:23.457Z,10.90
2018-05-06T04:52:49.613Z,10.80
2018-05-06T04:55:15.711Z,10.90
2018-05-06T04:57:41.853Z,11.00
2018-05-06T05:00:08.701Z,11.10
2018-05-06T05:02:34.828Z,11.00
2018-05-06T05:05:01.680Z,11.30
2018-05-06T05:07:28.556Z,11.40
2018-05-06T05:09:54.640Z,11.30
2018-05-06T05:12:21.537Z,11.60
2018-05-06T05:14:47.649Z,11.50
2018-05-06T05:17:14.529Z,11.80
2018-05-06T05:19:40.701Z,11.80
2018-05-06T05:22:06.802Z,12.00
2018-05-06T05:24:32.893Z,12.20
2018-05-06T05:26:59.768Z,12.60
2018-05-06T05:29:25.837Z,12.50
2018-05-06T05:31:51.953Z,12.90
2018-05-06T05:34:18.876Z,13.50
2018-05-06T05:36:45.050Z,13.40
2018-05-06T05:39:11.141Z,13.80
2018-05-06T05:41:37.249Z,14.20
2018-05-06T05:44:04.112Z,15.00
2018-05-06T05:46:30.932Z,15.30
2018-05-06T05:48:57.333Z,15.30
2018-05-06T05:51:23.425Z,15.70
2018-05-06T05:53:49.548Z,16.20
2018-05-06T05:56:15.764Z,16.60
2018-05-06T05:58:41.893Z,17.00
2018-05-06T06:01:07.969Z,17.40
2018-05-06T06:03:34.110Z,17.90
2018-05-06T06:06:00.212Z,18.20
2018-05-06T06:08:26.334Z,18.60
2018-05-06T06:10:52.436Z,19.00
2018-05-06T06:13:18.592Z,19.40
2018-05-06T06:15:45.460Z,20.20
2018-05-06T06:18:12.376Z,20.50
2018-05-06T06:20:38.478Z,20.50
2018-05-06T06:23:04.599Z,20.90
2018-05-06T06:25:30.715Z,21.30
2018-05-06T06:27:56.824Z,21.70
2018-05-06T06:30:22.939Z,22.00
2018-05-06T06:32:49.707Z,22.30
2018-05-06T06:35:15.725Z,22.70
2018-05-06T06:37:41.800Z,23.00
2018-05-06T06:40:07.967Z,23.30
2018-05-06T06:42:34.151Z,23.60
2018-05-06T06:45:00.252Z,23.80
2018-05-06T06:47:26.426Z,24.10
2018-05-06T06:49:52.693Z,24.40
2018-05-06T06:52:18.793Z,24.70
2018-05-06T06:54:44.930Z,25.00
2018-05-06T06:57:11.030Z,25.30
2018-05-06T06:59:37.158Z,25.60
2018-05-06T07:02:04.020Z,26.30
2018-05-06T07:04:30.209Z,26.20
2018-05-06T07:06:56.393Z,26.60
2018-05-06T07:09:23.235Z,27.20
2018-05-06T07:11:50.076Z,27.50
2018-05-06T07:14:16.868Z,27.40
2018-05-06T07:16:42.956Z,27.70
2018-05-06T07:19:09.859Z,28.20
2018-05-06T07:21:35.980Z,28.10
2018-05-06T07:24:02.081Z,28.30
2018-05-06T07:26:28.902Z,28.80
2018-05-06T07:28:54.993Z,28.60
2018-05-06T07:31:21.107Z,29.00
2018-05-06T07:33:47.601Z,29.20
2018-05-06T07:36:14.585Z,29.50
2018-05-06T07:38:41.464Z,30.10
2018-05-06T07:41:07.553Z,30.10
2018-05-06T07:43:34.417Z,30.80
2018-05-06T07:46:01.262Z,31.00
2018-05-06T07:48:28.149Z,31.20
2018-05-06T07:50:54.328Z,31.20
2018-05-06T07:53:20.428Z,31.40
2018-05-06T07:55:46.509Z,31.60
2018-05-06T07:58:13.369Z,32.10
2018-05-06T08:00:39.548Z,32.00
2018-05-06T08:03:05.831Z,32.40
2018-05-06T08:05:32.677Z,32.90
2018-05-06T08:07:58.870Z,32.80
2018-05-06T08:10:25.048Z,33.10
2018-05-06T08:12:51.145Z,33.40
2018-05-06T08:15:17.239Z,33.60
2018-05-06T08:17:43.342Z,33.90
2018-05-06T08:20:10.178Z,34.30
2018-05-06T08:22:37.004Z,34.50
2018-05-06T08:25:03.141Z,34.50
2018-05-06T08:27:29.974Z,34.90
2018-05-06T08:29:56.142Z,34.90
2018-05-06T08:32:22.995Z,35.20
2018-05-06T08:34:49.100Z,35.10
2018-05-06T08:37:15.725Z,35.30
2018-05-06T08:39:41.833Z,35.50
2018-05-06T08:42:07.972Z,35.60
2018-05-06T08:44:34.724Z,35.80
2018-05-06T08:47:01.432Z,36.00
2018-05-06T08:49:27.571Z,36.10
2018-05-06T08:51:53.665Z,36.10
2018-05-06T08:54:19.742Z,36.10
2018-05-06T08:56:45.848Z,36.10
2018-05-06T08:59:12.705Z,35.80
2018-05-06T09:01:39.524Z,35.60
2018-05-06T09:04:06.369Z,35.40
2018-05-06T09:06:32.503Z,35.40
2018-05-06T09:08:58.735Z,35.20
2018-05-06T09:11:25.027Z,34.90
2018-05-06T09:13:51.108Z,34.80
2018-05-06T09:16:17.215Z,34.50
2018-05-06T09:18:43.329Z,34.40
2018-05-06T09:21:09.409Z,34.20
2018-05-06T09:23:35.498Z,34.10
2018-05-06T09:26:01.587Z,34.00
2018-05-06T09:28:28.436Z,33.80
2018-05-06T09:30:54.520Z,33.80
2018-05-06T09:33:20.736Z,33.70
2018-05-06T09:35:46.825Z,33.60
2018-05-06T09:38:13.065Z,33.60
2018-05-06T09:40:39.904Z,33.50
2018-05-06T09:43:05.990Z,33.40
2018-05-06T09:45:32.101Z,33.40
2018-05-06T09:47:58.331Z,33.30
2018-05-06T09:50:24.337Z,33.30
2018-05-06T09:52:50.400Z,33.30
2018-05-06T09:55:16.505Z,33.30
2018-05-06T09:57:43.369Z,33.50
2018-05-06T10:00:09.507Z,33.40
2018-05-06T10:02:35.721Z,33.50
2018-05-06T10:05:01.841Z,33.60
2018-05-06T10:07:27.975Z,33.70
2018-05-06T10:09:54.900Z,33.70
2018-05-06T10:12:20.977Z,33.60
2018-05-06T10:14:47.101Z,33.70
2018-05-06T10:17:13.940Z,33.80
2018-05-06T10:19:40.782Z,33.80
2018-05-06T10:22:07.021Z,33.80
2018-05-06T10:24:33.126Z,33.80
2018-05-06T10:26:59.268Z,33.90
2018-05-06T10:29:26.183Z,33.90
2018-05-06T10:31:52.610Z,33.80
2018-05-06T10:34:18.748Z,33.80
2018-05-06T10:36:44.841Z,33.90
2018-05-06T10:39:10.967Z,33.90
2018-05-06T10:41:37.048Z,34.00
2018-05-06T10:44:03.189Z,34.00
2018-05-06T10:46:29.231Z,34.00
2018-05-06T10:48:55.325Z,34.00
2018-05-06T10:51:21.426Z,34.00
2018-05-06T10:53:47.504Z,34.00
2018-05-06T10:56:13.617Z,34.00
2018-05-06T10:58:40.524Z,34.00
2018-05-06T11:01:07.392Z,34.00
2018-05-06T11:03:33.656Z,33.90
2018-05-06T11:05:59.736Z,33.90
2018-05-06T11:08:25.832Z,33.80
2018-05-06T11:10:51.934Z,33.70
2018-05-06T11:13:18.736Z,33.50
2018-05-06T11:15:44.841Z,33.50
2018-05-06T11:18:10.925Z,33.40
2018-05-06T11:20:37.060Z,33.30
2018-05-06T11:23:03.895Z,33.20
2018-05-06T11:25:29.988Z,33.10
2018-05-06T11:27:56.105Z,33.10
2018-05-06T11:30:22.261Z,32.90
2018-05-06T11:32:48.608Z,32.80
2018-05-06T11:35:14.704Z,32.60
2018-05-06T11:37:41.528Z,32.30
2018-05-06T11:40:07.657Z,32.30
2018-05-06T11:42:34.498Z,32.20
2018-05-06T11:45:00.604Z,32.20
2018-05-06T11:47:26.745Z,32.30
2018-05-06T11:49:52.801Z,32.20
2018-05-06T11:52:19.637Z,32.20
2018-05-06T11:54:45.729Z,32.10
2018-05-06T11:57:11.814Z,32.10
2018-05-06T11:59:38.662Z,32.10
2018-05-06T12:02:05.490Z,32.10
2018-05-06T12:04:32.729Z,32.10
2018-05-06T12:06:58.916Z,32.10
2018-05-06T12:09:25.011Z,32.10
2018-05-06T12:11:52.661Z,32.00
2018-05-06T12:14:18.748Z,32.00
2018-05-06T12:16:44.837Z,31.90
2018-05-06T12:19:10.923Z,31.80
2018-05-06T12:21:37.014Z,31.70
2018-05-06T12:24:03.188Z,31.70
2018-05-06T12:26:30.008Z,31.60
2018-05-06T12:28:56.832Z,31.60
2018-05-06T12:31:22.924Z,31.60
2018-05-06T12:33:49.057Z,31.60
2018-05-06T12:36:15.388Z,31.60
2018-05-06T12:38:41.465Z,31.50
2018-05-06T12:41:07.550Z,31.40
2018-05-06T12:43:33.652Z,31.30
2018-05-06T12:46:00.484Z,31.10
2018-05-06T12:48:26.581Z,31.00
2018-05-06T12:50:52.677Z,30.90
2018-05-06T12:53:18.758Z,30.80
2018-05-06T12:55:44.852Z,30.80
2018-05-06T12:58:10.968Z,30.70
2018-05-06T13:00:37.061Z,30.60
2018-05-06T13:03:03.141Z,30.50
2018-05-06T13:05:29.200Z,30.40
2018-05-06T13:07:55.298Z,30.30
2018-05-06T13:10:21.401Z,30.20
2018-05-06T13:12:48.236Z,30.00
2018-05-06T13:15:14.316Z,29.90
2018-05-06T13:17:40.424Z,29.90
2018-05-06T13:20:07.848Z,29.70
2018-05-06T13:22:33.974Z,29.70
2018-05-06T13:25:00.107Z,29.70
2018-05-06T13:27:26.207Z,29.60
2018-05-06T13:29:53.117Z,29.60
2018-05-06T13:32:19.205Z,29.60
2018-05-06T13:34:45.307Z,29.50
2018-05-06T13:37:11.465Z,29.40
2018-05-06T13:39:37.577Z,29.30
2018-05-06T13:42:03.699Z,29.20
2018-05-06T13:44:29.824Z,29.00
2018-05-06T13:46:56.668Z,28.70
2018-05-06T13:49:23.576Z,28.50
2018-05-06T13:51:49.669Z,28.50
2018-05-06T13:54:15.793Z,28.40
2018-05-06T13:56:42.608Z,28.10
2018-05-06T13:59:08.709Z,28.00
2018-05-06T14:01:34.919Z,27.90
2018-05-06T14:04:00.945Z,27.80
2018-05-06T14:06:27.030Z,27.70
2018-05-06T14:08:54.038Z,27.50
2018-05-06T14:11:20.126Z,27.50
2018-05-06T14:13:46.235Z,27.40
2018-05-06T14:16:12.306Z,27.30
2018-05-06T14:18:41.335Z,27.20
2018-05-06T14:21:07.672Z,27.20
2018-05-06T14:23:33.772Z,27.10
2018-05-06T14:25:59.871Z,27.10
2018-05-06T14:28:25.968Z,27.00
2018-05-06T14:30:52.084Z,26.80
2018-05-06T14:33:18.191Z,26.60
2018-05-06T14:35:45.022Z,26.30
2018-05-06T14:38:11.095Z,26.30
2018-05-06T14:40:37.909Z,26.20
2018-05-06T14:43:04.000Z,26.10
2018-05-06T14:45:30.105Z,26.10
2018-05-06T14:48:08.528Z,26.00
2018-05-06T14:50:35.300Z,25.90
2018-05-06T14:53:01.392Z,25.80
2018-05-06T14:55:27.472Z,25.80
2018-05-06T14:57:55.460Z,25.60
2018-05-06T15:00:21.579Z,25.50
2018-05-06T15:02:47.689Z,25.50
2018-05-06T15:05:13.769Z,25.40
2018-05-06T15:07:39.872Z,25.40
2018-05-06T15:10:05.954Z,25.30
2018-05-06T15:12:32.066Z,25.20
2018-05-06T15:14:58.172Z,25.20
2018-05-06T15:17:24.252Z,25.20
2018-05-06T15:19:50.357Z,25.20
2018-05-06T15:22:16.457Z,25.10
2018-05-06T15:24:43.412Z,25.10
2018-05-06T15:27:09.509Z,25.10
2018-05-06T15:29:35.640Z,25.10
2018-05-06T15:32:01.725Z,25.00
2018-05-06T15:34:27.816Z,25.00
2018-05-06T15:36:53.966Z,25.00
2018-05-06T15:39:20.084Z,25.00
2018-05-06T15:41:46.729Z,25.00
2018-05-06T15:44:12.833Z,24.90
2018-05-06T15:46:38.919Z,24.90
2018-05-06T15:49:05.195Z,24.80
2018-05-06T15:51:32.014Z,24.70
2018-05-06T15:53:58.182Z,24.70
2018-05-06T15:56:25.150Z,24.70
2018-05-06T15:58:51.380Z,24.70
2018-05-06T16:01:17.520Z,24.70
2018-05-06T16:03:56.159Z,24.60
2018-05-06T16:06:22.258Z,24.60
2018-05-06T16:08:48.414Z,24.60
2018-05-06T16:11:14.524Z,24.60
2018-05-06T16:13:40.617Z,24.50
2018-05-06T16:16:06.729Z,24.60
2018-05-06T16:18:32.825Z,24.60
2018-05-06T16:20:58.967Z,24.60
2018-05-06T16:23:25.912Z,24.60
2018-05-06T16:25:52.025Z,24.50
2018-05-06T16:28:18.167Z,24.60
2018-05-06T16:30:44.260Z,24.60
2018-05-06T16:33:10.338Z,24.60
2018-05-06T16:35:36.468Z,24.50
2018-05-06T16:38:02.560Z,24.50
2018-05-06T16:40:29.376Z,24.50
2018-05-06T16:42:55.476Z,24.40
2018-05-06T16:45:21.656Z,24.40
2018-05-06T16:47:47.741Z,24.40
2018-05-06T16:50:13.874Z,24.40
2018-05-06T16:52:40.024Z,24.30
2018-05-06T16:55:06.151Z,24.30
2018-05-06T16:57:32.279Z,24.30
2018-05-06T16:59:58.408Z,24.20
2018-05-06T17:02:24.534Z,24.20
2018-05-06T17:04:50.696Z,24.10
2018-05-06T17:07:16.807Z,24.10
2018-05-06T17:09:42.897Z,24.10
2018-05-06T17:12:09.786Z,24.10
2018-05-06T17:14:35.956Z,24.10
2018-05-06T17:17:02.041Z,24.10
2018-05-06T17:19:28.152Z,24.10
2018-05-06T17:21:54.629Z,24.10
2018-05-06T17:24:20.714Z,24.00
2018-05-06T17:26:47.532Z,23.90
2018-05-06T17:29:13.606Z,23.90
2018-05-06T18:02:47.798Z,27.20
2018-05-06T18:05:14.063Z,27.70
2018-05-06T18:08:35.587Z,26.20
2018-05-06T18:11:01.762Z,26.20
2018-05-06T18:13:27.910Z,26.00
2018-05-06T18:15:54.101Z,26.00
2018-05-06T18:20:00.767Z,26.10
2018-05-06T18:22:27.711Z,26.00
2018-05-06T18:24:53.954Z,25.90
2018-05-06T18:27:20.925Z,25.50
2018-05-06T18:29:47.125Z,25.50
2018-05-06T18:32:13.382Z,25.30
2018-05-06T18:34:39.645Z,24.90
2018-05-06T18:37:05.853Z,24.60
2018-05-06T18:39:32.831Z,24.00
2018-05-06T18:41:59.388Z,24.00
2018-05-06T18:44:25.623Z,23.70
2018-05-06T18:46:51.893Z,23.40
2018-05-06T18:49:18.837Z,23.00
2018-05-06T18:51:45.113Z,22.90
2018-05-06T18:54:12.067Z,22.50
2018-05-06T18:56:38.308Z,22.50
2018-05-06T18:59:04.524Z,22.30
2018-05-06T19:01:30.725Z,22.20
2018-05-06T19:03:58.663Z,21.80
2018-05-06T19:06:25.382Z,21.70
2018-05-06T19:08:51.788Z,21.70
2018-05-06T19:11:19.429Z,21.50
2018-05-06T19:13:46.824Z,21.30
2018-05-06T19:16:13.277Z,21.20
2018-05-06T19:18:39.719Z,21.20
2018-05-06T19:21:06.311Z,21.10
2018-05-06T19:26:06.964Z,20.90
2018-05-06T19:28:33.931Z,20.80
2018-05-06T19:31:01.801Z,20.60
2018-05-06T19:33:28.214Z,20.50
2018-05-06T19:35:54.562Z,20.50
2018-05-06T19:38:20.986Z,20.40
2018-05-06T19:40:47.245Z,20.30
2018-05-06T19:43:13.970Z,20.30
2018-05-06T19:45:40.269Z,20.20
2018-05-06T19:48:07.355Z,20.00
2018-05-06T19:50:33.871Z,20.00
2018-05-06T19:53:00.117Z,19.90
2018-05-06T19:55:27.034Z,19.80
2018-05-06T19:57:53.889Z,19.80
2018-05-06T20:00:20.104Z,19.70
2018-05-06T20:02:46.288Z,19.70
2018-05-06T20:05:12.538Z,19.60
2018-05-06T20:07:39.089Z,19.50
2018-05-06T20:10:05.423Z,19.50
2018-05-06T20:12:31.615Z,19.40
2018-05-06T20:14:57.826Z,19.40
2018-05-06T20:17:24.095Z,19.30
2018-05-06T20:19:50.301Z,19.30
2018-05-06T20:22:16.570Z,19.20
2018-05-06T20:24:43.485Z,19.10
2018-05-06T20:27:09.637Z,19.00
2018-05-06T20:29:36.685Z,19.00
2018-05-06T20:32:03.717Z,18.90
2018-05-06T20:34:29.994Z,18.90
2018-05-06T20:36:56.312Z,18.90
2018-05-06T20:39:22.561Z,18.80
2018-05-06T20:41:49.474Z,18.70
2018-05-06T20:44:17.033Z,18.60
2018-05-06T20:46:43.238Z,18.60
2018-05-06T20:49:09.468Z,18.60
2018-05-06T20:51:36.500Z,18.50
2018-05-06T20:54:02.809Z,18.40
2018-05-06T20:56:29.065Z,18.40
2018-05-06T20:58:55.489Z,18.40
2018-05-06T21:01:22.554Z,18.30
2018-05-06T21:03:48.837Z,18.20
2018-05-06T21:06:15.005Z,18.20
2018-05-06T21:08:41.353Z,18.20
2018-05-06T21:11:07.629Z,18.10
2018-05-06T21:13:33.902Z,18.00
2018-05-06T21:16:00.901Z,17.90
2018-05-06T21:18:27.238Z,17.90
2018-05-06T21:20:53.466Z,17.90
2018-05-06T21:23:19.738Z,17.80
2018-05-06T21:25:46.016Z,17.70
2018-05-06T21:28:12.199Z,17.70
2018-05-06T21:30:38.434Z,17.60
2018-05-06T21:33:05.329Z,17.60
2018-05-06T21:35:31.840Z,17.50
2018-05-06T21:37:57.975Z,17.50
2018-05-06T21:40:24.194Z,17.40
2018-05-06T21:42:50.449Z,17.40
2018-05-06T21:45:16.678Z,17.30
2018-05-06T21:47:42.909Z,17.30
2018-05-06T21:50:09.134Z,17.20
2018-05-06T21:52:35.341Z,17.20
2018-05-06T21:55:01.690Z,17.10
2018-05-06T21:57:27.898Z,17.00
2018-05-06T21:59:54.049Z,17.00
2018-05-06T22:02:20.252Z,16.90
2018-05-06T22:04:46.482Z,16.80
2018-05-06T22:07:12.917Z,16.80
2018-05-06T22:09:39.149Z,16.70
2018-05-06T22:12:06.061Z,16.70
2018-05-06T22:14:32.245Z,16.60
2018-05-06T22:16:59.177Z,16.50
2018-05-06T22:19:25.329Z,16.40
2018-05-06T22:21:51.535Z,16.40
2018-05-06T22:24:17.711Z,16.40
2018-05-06T22:26:43.891Z,16.30
2018-05-06T22:29:10.141Z,16.20
2018-05-06T22:31:36.327Z,16.20
2018-05-06T22:34:02.586Z,16.10
2018-05-06T22:36:28.869Z,16.10
2018-05-06T22:38:55.158Z,16.00
2018-05-06T22:41:21.329Z,15.90
2018-05-06T22:43:47.521Z,15.90
2018-05-06T22:46:13.725Z,15.80
2018-05-06T22:48:40.854Z,15.80
2018-05-06T22:51:07.087Z,15.70
2018-05-06T22:53:33.282Z,15.60
2018-05-06T22:55:59.457Z,15.60
2018-05-06T22:58:25.713Z,15.50
2018-05-06T23:00:51.924Z,15.40
2018-05-06T23:03:18.857Z,15.30
2018-05-06T23:05:45.043Z,15.20
2018-05-06T23:08:12.033Z,15.20
2018-05-06T23:10:38.256Z,15.20
2018-05-06T23:13:04.649Z,15.20
2018-05-06T23:15:31.545Z,15.00
2018-05-06T23:17:57.743Z,15.00
2018-05-06T23:20:23.974Z,15.00
2018-05-06T23:22:50.214Z,14.90
2018-05-06T23:25:17.026Z,14.80
2018-05-06T23:27:43.725Z,14.80
2018-05-06T23:30:09.941Z,14.70
2018-05-06T23:32:36.233Z,14.70
2018-05-06T23:35:02.447Z,14.60
2018-05-06T23:37:28.645Z,14.50
2018-05-06T23:39:54.852Z,14.50
2018-05-06T23:42:21.002Z,14.40
2018-05-06T23:44:47.190Z,14.40
2018-05-06T23:47:14.131Z,14.30
2018-05-06T23:49:40.422Z,14.20
2018-05-06T23:52:06.553Z,14.20
2018-05-06T23:54:33.523Z,14.20
2018-05-06T23:56:59.714Z,14.10
2018-05-06T23:59:25.900Z,14.10
